sensor_id;sensor_type;location;lat;lon;timestamp;P1;durP1;ratioP1;P2;durP2;ratioP2
2049;SDS011;8478;49.208;8.806;2024-01-16T00:02:25;7.40;;;6.80;;
2049;SDS011;8478;49.208;8.806;2024-01-16T00:04:50;8.13;;;7.03;;
2049;SDS011;8478;49.208;8.806;2024-01-16T00:07:16;8.73;;;7.87;;
2049;SDS011;8478;49.208;8.806;2024-01-16T00:09:42;7.73;;;6.83;;
2049;SDS011;8478;49.208;8.806;2024-01-16T00:12:07;8.13;;;7.17;;
2049;SDS011;8478;49.208;8.806;2024-01-16T00:14:36;9.00;;;7.20;;
2049;SDS011;8478;49.208;8.806;2024-01-16T00:17:02;7.10;;;6.40;;
2049;SDS011;8478;49.208;8.806;2024-01-16T00:19:28;8.87;;;7.40;;
2049;SDS011;8478;49.208;8.806;2024-01-16T00:21:54;8.33;;;7.40;;
2049;SDS011;8478;49.208;8.806;2024-01-16T00:24:19;7.93;;;7.13;;
2049;SDS011;8478;49.208;8.806;2024-01-16T00:26:45;9.00;;;7.97;;
2049;SDS011;8478;49.208;8.806;2024-01-16T00:29:11;8.10;;;6.80;;
2049;SDS011;8478;49.208;8.806;2024-01-16T00:31:40;7.40;;;6.70;;
2049;SDS011;8478;49.208;8.806;2024-01-16T00:34:06;8.33;;;7.53;;
2049;SDS011;8478;49.208;8.806;2024-01-16T00:36:32;8.53;;;7.73;;
2049;SDS011;8478;49.208;8.806;2024-01-16T00:38:58;7.97;;;7.23;;
2049;SDS011;8478;49.208;8.806;2024-01-16T00:41:23;7.87;;;7.17;;
2049;SDS011;8478;49.208;8.806;2024-01-16T00:43:49;8.47;;;7.67;;
2049;SDS011;8478;49.208;8.806;2024-01-16T00:46:15;7.43;;;6.80;;
2049;SDS011;8478;49.208;8.806;2024-01-16T00:48:40;8.70;;;8.00;;
2049;SDS011;8478;49.208;8.806;2024-01-16T00:51:06;7.77;;;7.07;;
2049;SDS011;8478;49.208;8.806;2024-01-16T00:53:32;8.07;;;7.37;;
2049;SDS011;8478;49.208;8.806;2024-01-16T00:55:57;8.43;;;7.63;;
2049;SDS011;8478;49.208;8.806;2024-01-16T00:58:23;8.40;;;7.53;;
2049;SDS011;8478;49.208;8.806;2024-01-16T01:00:49;8.13;;;7.33;;
2049;SDS011;8478;49.208;8.806;2024-01-16T01:03:14;8.40;;;7.60;;
2049;SDS011;8478;49.208;8.806;2024-01-16T01:05:40;8.80;;;7.97;;
2049;SDS011;8478;49.208;8.806;2024-01-16T01:08:06;8.53;;;7.77;;
2049;SDS011;8478;49.208;8.806;2024-01-16T01:10:32;7.70;;;7.00;;
2049;SDS011;8478;49.208;8.806;2024-01-16T01:12:58;9.57;;;6.80;;
2049;SDS011;8478;49.208;8.806;2024-01-16T01:15:24;8.13;;;7.40;;
2049;SDS011;8478;49.208;8.806;2024-01-16T01:17:49;7.80;;;7.10;;
2049;SDS011;8478;49.208;8.806;2024-01-16T01:20:17;7.43;;;6.80;;
2049;SDS011;8478;49.208;8.806;2024-01-16T01:22:44;7.50;;;6.70;;
2049;SDS011;8478;49.208;8.806;2024-01-16T01:25:10;7.83;;;7.23;;
2049;SDS011;8478;49.208;8.806;2024-01-16T01:27:37;7.43;;;6.73;;
2049;SDS011;8478;49.208;8.806;2024-01-16T01:30:03;7.90;;;7.30;;
2049;SDS011;8478;49.208;8.806;2024-01-16T01:32:29;7.83;;;7.13;;
2049;SDS011;8478;49.208;8.806;2024-01-16T01:34:55;9.07;;;8.20;;
2049;SDS011;8478;49.208;8.806;2024-01-16T01:37:20;7.30;;;6.67;;
2049;SDS011;8478;49.208;8.806;2024-01-16T01:39:46;8.13;;;7.43;;
2049;SDS011;8478;49.208;8.806;2024-01-16T01:42:12;8.30;;;7.60;;
2049;SDS011;8478;49.208;8.806;2024-01-16T01:44:37;7.57;;;6.63;;
2049;SDS011;8478;49.208;8.806;2024-01-16T01:47:03;7.40;;;6.73;;
2049;SDS011;8478;49.208;8.806;2024-01-16T01:49:30;8.23;;;7.43;;
2049;SDS011;8478;49.208;8.806;2024-01-16T01:51:56;8.20;;;7.50;;
2049;SDS011;8478;49.208;8.806;2024-01-16T01:54:22;7.07;;;6.37;;
2049;SDS011;8478;49.208;8.806;2024-01-16T01:56:49;7.83;;;7.20;;
2049;SDS011;8478;49.208;8.806;2024-01-16T01:59:17;8.37;;;7.57;;
2049;SDS011;8478;49.208;8.806;2024-01-16T02:01:44;8.17;;;7.37;;
2049;SDS011;8478;49.208;8.806;2024-01-16T02:04:14;7.63;;;6.93;;
2049;SDS011;8478;49.208;8.806;2024-01-16T02:06:42;7.90;;;7.20;;
2049;SDS011;8478;49.208;8.806;2024-01-16T02:09:09;8.13;;;7.33;;
2049;SDS011;8478;49.208;8.806;2024-01-16T02:11:41;7.53;;;6.83;;
2049;SDS011;8478;49.208;8.806;2024-01-16T02:14:07;7.73;;;7.03;;
2049;SDS011;8478;49.208;8.806;2024-01-16T02:16:37;7.93;;;7.00;;
2049;SDS011;8478;49.208;8.806;2024-01-16T02:19:06;9.40;;;7.50;;
2049;SDS011;8478;49.208;8.806;2024-01-16T02:21:54;7.90;;;7.20;;
2049;SDS011;8478;49.208;8.806;2024-01-16T02:24:22;8.57;;;7.10;;
2049;SDS011;8478;49.208;8.806;2024-01-16T02:26:48;8.47;;;7.67;;
2049;SDS011;8478;49.208;8.806;2024-01-16T02:29:13;7.90;;;7.20;;
2049;SDS011;8478;49.208;8.806;2024-01-16T02:31:41;7.97;;;7.20;;
2049;SDS011;8478;49.208;8.806;2024-01-16T02:34:07;8.33;;;7.60;;
2049;SDS011;8478;49.208;8.806;2024-01-16T02:36:33;7.40;;;6.70;;
2049;SDS011;8478;49.208;8.806;2024-01-16T02:38:59;8.10;;;7.30;;
2049;SDS011;8478;49.208;8.806;2024-01-16T02:41:25;8.77;;;7.90;;
2049;SDS011;8478;49.208;8.806;2024-01-16T02:43:51;10.03;;;7.47;;
2049;SDS011;8478;49.208;8.806;2024-01-16T02:46:17;8.07;;;7.37;;
2049;SDS011;8478;49.208;8.806;2024-01-16T02:48:43;8.20;;;7.40;;
2049;SDS011;8478;49.208;8.806;2024-01-16T02:51:09;8.43;;;7.63;;
2049;SDS011;8478;49.208;8.806;2024-01-16T02:53:35;7.40;;;6.80;;
2049;SDS011;8478;49.208;8.806;2024-01-16T02:56:00;7.00;;;6.40;;
2049;SDS011;8478;49.208;8.806;2024-01-16T02:58:27;8.83;;;8.03;;
2049;SDS011;8478;49.208;8.806;2024-01-16T03:00:53;8.80;;;7.60;;
2049;SDS011;8478;49.208;8.806;2024-01-16T03:03:19;7.63;;;6.80;;
2049;SDS011;8478;49.208;8.806;2024-01-16T03:05:45;8.13;;;7.30;;
2049;SDS011;8478;49.208;8.806;2024-01-16T03:08:12;8.37;;;7.60;;
2049;SDS011;8478;49.208;8.806;2024-01-16T03:10:37;8.47;;;7.67;;
2049;SDS011;8478;49.208;8.806;2024-01-16T03:13:03;7.40;;;6.80;;
2049;SDS011;8478;49.208;8.806;2024-01-16T03:15:29;8.47;;;7.57;;
2049;SDS011;8478;49.208;8.806;2024-01-16T03:17:56;7.83;;;7.13;;
2049;SDS011;8478;49.208;8.806;2024-01-16T03:20:22;9.27;;;7.77;;
2049;SDS011;8478;49.208;8.806;2024-01-16T03:22:48;8.80;;;7.90;;
2049;SDS011;8478;49.208;8.806;2024-01-16T03:25:14;7.40;;;6.70;;
2049;SDS011;8478;49.208;8.806;2024-01-16T03:27:41;8.23;;;7.53;;
2049;SDS011;8478;49.208;8.806;2024-01-16T03:30:07;8.90;;;7.83;;
2049;SDS011;8478;49.208;8.806;2024-01-16T03:32:34;8.40;;;7.60;;
2049;SDS011;8478;49.208;8.806;2024-01-16T03:35:03;8.77;;;7.97;;
2049;SDS011;8478;49.208;8.806;2024-01-16T03:37:29;8.60;;;7.40;;
2049;SDS011;8478;49.208;8.806;2024-01-16T03:39:55;8.57;;;7.67;;
2049;SDS011;8478;49.208;8.806;2024-01-16T03:42:22;9.20;;;8.17;;
2049;SDS011;8478;49.208;8.806;2024-01-16T03:44:47;7.70;;;7.00;;
2049;SDS011;8478;49.208;8.806;2024-01-16T03:47:13;7.47;;;6.77;;
2049;SDS011;8478;49.208;8.806;2024-01-16T03:49:39;8.40;;;7.60;;
2049;SDS011;8478;49.208;8.806;2024-01-16T03:52:04;8.00;;;7.20;;
2049;SDS011;8478;49.208;8.806;2024-01-16T03:54:30;7.70;;;6.90;;
2049;SDS011;8478;49.208;8.806;2024-01-16T03:56:56;6.77;;;6.17;;
2049;SDS011;8478;49.208;8.806;2024-01-16T03:59:22;8.00;;;7.30;;
2049;SDS011;8478;49.208;8.806;2024-01-16T04:01:48;7.83;;;7.23;;
2049;SDS011;8478;49.208;8.806;2024-01-16T04:04:14;8.23;;;7.50;;
2049;SDS011;8478;49.208;8.806;2024-01-16T04:06:40;8.03;;;7.40;;
2049;SDS011;8478;49.208;8.806;2024-01-16T04:09:07;8.13;;;7.33;;
2049;SDS011;8478;49.208;8.806;2024-01-16T04:11:33;8.47;;;7.67;;
2049;SDS011;8478;49.208;8.806;2024-01-16T04:13:59;9.13;;;7.57;;
2049;SDS011;8478;49.208;8.806;2024-01-16T04:16:25;7.50;;;6.80;;
2049;SDS011;8478;49.208;8.806;2024-01-16T04:18:51;8.20;;;7.50;;
2049;SDS011;8478;49.208;8.806;2024-01-16T04:21:17;8.43;;;7.63;;
2049;SDS011;8478;49.208;8.806;2024-01-16T04:23:43;8.10;;;7.30;;
2049;SDS011;8478;49.208;8.806;2024-01-16T04:26:08;6.83;;;6.23;;
2049;SDS011;8478;49.208;8.806;2024-01-16T04:28:34;7.70;;;6.50;;
2049;SDS011;8478;49.208;8.806;2024-01-16T04:31:02;8.73;;;7.97;;
2049;SDS011;8478;49.208;8.806;2024-01-16T04:33:30;8.10;;;7.40;;
2049;SDS011;8478;49.208;8.806;2024-01-16T04:35:56;9.20;;;8.50;;
2049;SDS011;8478;49.208;8.806;2024-01-16T04:38:22;12.20;;;8.70;;
2049;SDS011;8478;49.208;8.806;2024-01-16T04:40:48;9.10;;;8.33;;
2049;SDS011;8478;49.208;8.806;2024-01-16T04:43:14;9.20;;;8.30;;
2049;SDS011;8478;49.208;8.806;2024-01-16T04:45:40;8.80;;;8.00;;
2049;SDS011;8478;49.208;8.806;2024-01-16T04:48:06;8.57;;;7.70;;
2049;SDS011;8478;49.208;8.806;2024-01-16T04:50:33;8.70;;;7.77;;
2049;SDS011;8478;49.208;8.806;2024-01-16T04:52:59;9.60;;;7.20;;
2049;SDS011;8478;49.208;8.806;2024-01-16T04:55:26;8.07;;;7.17;;
2049;SDS011;8478;49.208;8.806;2024-01-16T04:57:53;9.10;;;8.10;;
2049;SDS011;8478;49.208;8.806;2024-01-16T05:00:19;8.20;;;7.50;;
2049;SDS011;8478;49.208;8.806;2024-01-16T05:02:45;7.50;;;6.80;;
2049;SDS011;8478;49.208;8.806;2024-01-16T05:05:11;8.43;;;7.73;;
2049;SDS011;8478;49.208;8.806;2024-01-16T05:07:37;8.37;;;7.27;;
2049;SDS011;8478;49.208;8.806;2024-01-16T05:10:04;9.20;;;8.40;;
2049;SDS011;8478;49.208;8.806;2024-01-16T05:12:31;8.50;;;7.80;;
2049;SDS011;8478;49.208;8.806;2024-01-16T05:14:57;9.17;;;8.30;;
2049;SDS011;8478;49.208;8.806;2024-01-16T05:17:23;7.97;;;7.17;;
2049;SDS011;8478;49.208;8.806;2024-01-16T05:19:48;8.67;;;7.97;;
2049;SDS011;8478;49.208;8.806;2024-01-16T05:22:14;8.43;;;7.73;;
2049;SDS011;8478;49.208;8.806;2024-01-16T05:24:40;8.73;;;7.87;;
2049;SDS011;8478;49.208;8.806;2024-01-16T05:27:06;9.17;;;8.37;;
2049;SDS011;8478;49.208;8.806;2024-01-16T05:29:32;9.03;;;8.23;;
2049;SDS011;8478;49.208;8.806;2024-01-16T05:31:57;9.07;;;8.00;;
2049;SDS011;8478;49.208;8.806;2024-01-16T05:34:23;9.03;;;8.27;;
2049;SDS011;8478;49.208;8.806;2024-01-16T05:36:49;9.17;;;8.30;;
2049;SDS011;8478;49.208;8.806;2024-01-16T05:39:15;10.27;;;8.53;;
2049;SDS011;8478;49.208;8.806;2024-01-16T05:41:42;8.87;;;8.07;;
2049;SDS011;8478;49.208;8.806;2024-01-16T05:44:08;8.77;;;8.00;;
2049;SDS011;8478;49.208;8.806;2024-01-16T05:46:33;8.37;;;7.60;;
2049;SDS011;8478;49.208;8.806;2024-01-16T05:48:59;10.10;;;9.20;;
2049;SDS011;8478;49.208;8.806;2024-01-16T05:51:27;9.40;;;8.57;;
2049;SDS011;8478;49.208;8.806;2024-01-16T05:53:53;10.10;;;9.17;;
2049;SDS011;8478;49.208;8.806;2024-01-16T05:56:19;8.23;;;7.43;;
2049;SDS011;8478;49.208;8.806;2024-01-16T05:58:44;10.20;;;8.03;;
2049;SDS011;8478;49.208;8.806;2024-01-16T06:01:10;9.70;;;8.37;;
2049;SDS011;8478;49.208;8.806;2024-01-16T06:03:38;8.60;;;7.80;;
2049;SDS011;8478;49.208;8.806;2024-01-16T06:06:07;8.20;;;7.40;;
2049;SDS011;8478;49.208;8.806;2024-01-16T06:08:33;7.43;;;6.83;;
2049;SDS011;8478;49.208;8.806;2024-01-16T06:10:59;8.57;;;7.87;;
2049;SDS011;8478;49.208;8.806;2024-01-16T06:13:25;8.03;;;7.30;;
2049;SDS011;8478;49.208;8.806;2024-01-16T06:15:51;8.07;;;7.47;;
2049;SDS011;8478;49.208;8.806;2024-01-16T06:18:16;8.30;;;7.60;;
2049;SDS011;8478;49.208;8.806;2024-01-16T06:20:42;9.53;;;8.63;;
2049;SDS011;8478;49.208;8.806;2024-01-16T06:23:08;9.83;;;9.03;;
2049;SDS011;8478;49.208;8.806;2024-01-16T06:25:34;9.97;;;9.17;;
2049;SDS011;8478;49.208;8.806;2024-01-16T06:27:59;9.90;;;8.90;;
2049;SDS011;8478;49.208;8.806;2024-01-16T06:30:25;10.60;;;9.50;;
2049;SDS011;8478;49.208;8.806;2024-01-16T06:32:51;9.47;;;8.77;;
2049;SDS011;8478;49.208;8.806;2024-01-16T06:35:16;11.90;;;10.70;;
2049;SDS011;8478;49.208;8.806;2024-01-16T06:37:42;11.47;;;10.43;;
2049;SDS011;8478;49.208;8.806;2024-01-16T06:40:08;16.20;;;15.00;;
2049;SDS011;8478;49.208;8.806;2024-01-16T06:42:35;15.33;;;14.10;;
2049;SDS011;8478;49.208;8.806;2024-01-16T06:45:03;14.30;;;13.20;;
2049;SDS011;8478;49.208;8.806;2024-01-16T06:47:30;13.93;;;12.53;;
2049;SDS011;8478;49.208;8.806;2024-01-16T06:49:56;14.07;;;12.87;;
2049;SDS011;8478;49.208;8.806;2024-01-16T06:52:21;13.30;;;12.20;;
2049;SDS011;8478;49.208;8.806;2024-01-16T06:54:47;12.50;;;11.30;;
2049;SDS011;8478;49.208;8.806;2024-01-16T06:57:13;12.53;;;11.30;;
2049;SDS011;8478;49.208;8.806;2024-01-16T06:59:39;11.63;;;10.50;;
2049;SDS011;8478;49.208;8.806;2024-01-16T07:02:04;11.00;;;10.00;;
2049;SDS011;8478;49.208;8.806;2024-01-16T07:04:31;10.97;;;10.03;;
2049;SDS011;8478;49.208;8.806;2024-01-16T07:06:57;11.20;;;10.17;;
2049;SDS011;8478;49.208;8.806;2024-01-16T07:09:24;10.97;;;9.97;;
2049;SDS011;8478;49.208;8.806;2024-01-16T07:11:50;10.50;;;9.60;;
2049;SDS011;8478;49.208;8.806;2024-01-16T07:14:16;12.10;;;10.90;;
2049;SDS011;8478;49.208;8.806;2024-01-16T07:16:41;12.47;;;10.57;;
2049;SDS011;8478;49.208;8.806;2024-01-16T07:19:08;12.03;;;10.93;;
2049;SDS011;8478;49.208;8.806;2024-01-16T07:21:34;10.63;;;9.73;;
2049;SDS011;8478;49.208;8.806;2024-01-16T07:24:00;10.73;;;9.63;;
2049;SDS011;8478;49.208;8.806;2024-01-16T07:26:26;12.03;;;10.83;;
2049;SDS011;8478;49.208;8.806;2024-01-16T07:28:51;13.47;;;10.83;;
2049;SDS011;8478;49.208;8.806;2024-01-16T07:31:17;11.17;;;9.97;;
2049;SDS011;8478;49.208;8.806;2024-01-16T07:33:43;11.63;;;9.67;;
2049;SDS011;8478;49.208;8.806;2024-01-16T07:36:09;12.40;;;10.07;;
2049;SDS011;8478;49.208;8.806;2024-01-16T07:38:35;11.90;;;9.47;;
2049;SDS011;8478;49.208;8.806;2024-01-16T07:41:03;12.60;;;10.63;;
2049;SDS011;8478;49.208;8.806;2024-01-16T07:43:30;10.93;;;9.83;;
2049;SDS011;8478;49.208;8.806;2024-01-16T07:45:56;10.53;;;9.43;;
2049;SDS011;8478;49.208;8.806;2024-01-16T07:48:22;10.23;;;9.30;;
2049;SDS011;8478;49.208;8.806;2024-01-16T07:50:50;10.97;;;9.60;;
2049;SDS011;8478;49.208;8.806;2024-01-16T07:53:16;14.27;;;11.17;;
2049;SDS011;8478;49.208;8.806;2024-01-16T07:55:42;14.17;;;12.63;;
2049;SDS011;8478;49.208;8.806;2024-01-16T07:58:11;11.67;;;10.67;;
2049;SDS011;8478;49.208;8.806;2024-01-16T08:00:37;13.07;;;11.77;;
2049;SDS011;8478;49.208;8.806;2024-01-16T08:03:06;15.03;;;13.60;;
2049;SDS011;8478;49.208;8.806;2024-01-16T08:05:33;12.63;;;11.20;;
2049;SDS011;8478;49.208;8.806;2024-01-16T08:07:59;28.03;;;19.37;;
2049;SDS011;8478;49.208;8.806;2024-01-16T08:10:24;33.37;;;20.70;;
2049;SDS011;8478;49.208;8.806;2024-01-16T08:12:50;33.87;;;20.53;;
2049;SDS011;8478;49.208;8.806;2024-01-16T08:15:16;36.27;;;20.40;;
2049;SDS011;8478;49.208;8.806;2024-01-16T08:17:41;38.27;;;19.80;;
2049;SDS011;8478;49.208;8.806;2024-01-16T08:20:07;28.67;;;19.70;;
2049;SDS011;8478;49.208;8.806;2024-01-16T08:22:36;30.57;;;20.80;;
2049;SDS011;8478;49.208;8.806;2024-01-16T08:25:02;33.03;;;20.80;;
2049;SDS011;8478;49.208;8.806;2024-01-16T08:27:31;30.37;;;19.70;;
2049;SDS011;8478;49.208;8.806;2024-01-16T08:29:57;23.67;;;17.67;;
2049;SDS011;8478;49.208;8.806;2024-01-16T08:32:23;21.70;;;16.50;;
2049;SDS011;8478;49.208;8.806;2024-01-16T08:34:49;20.07;;;14.87;;
2049;SDS011;8478;49.208;8.806;2024-01-16T08:37:14;20.10;;;15.83;;
2049;SDS011;8478;49.208;8.806;2024-01-16T08:39:40;19.03;;;13.60;;
2049;SDS011;8478;49.208;8.806;2024-01-16T08:42:06;18.57;;;14.87;;
2049;SDS011;8478;49.208;8.806;2024-01-16T08:44:32;18.13;;;13.90;;
2049;SDS011;8478;49.208;8.806;2024-01-16T08:46:57;16.30;;;12.57;;
2049;SDS011;8478;49.208;8.806;2024-01-16T08:49:24;17.40;;;13.73;;
2049;SDS011;8478;49.208;8.806;2024-01-16T08:51:50;15.60;;;12.80;;
2049;SDS011;8478;49.208;8.806;2024-01-16T08:54:16;16.40;;;12.23;;
2049;SDS011;8478;49.208;8.806;2024-01-16T08:56:41;13.77;;;11.40;;
2049;SDS011;8478;49.208;8.806;2024-01-16T08:59:07;16.43;;;11.70;;
2049;SDS011;8478;49.208;8.806;2024-01-16T09:01:33;12.50;;;10.00;;
2049;SDS011;8478;49.208;8.806;2024-01-16T09:03:59;11.63;;;10.50;;
2049;SDS011;8478;49.208;8.806;2024-01-16T09:06:24;11.93;;;10.73;;
2049;SDS011;8478;49.208;8.806;2024-01-16T09:08:50;12.70;;;10.73;;
2049;SDS011;8478;49.208;8.806;2024-01-16T09:11:16;10.90;;;9.67;;
2049;SDS011;8478;49.208;8.806;2024-01-16T09:13:42;11.30;;;9.67;;
2049;SDS011;8478;49.208;8.806;2024-01-16T09:16:08;13.43;;;10.70;;
2049;SDS011;8478;49.208;8.806;2024-01-16T09:18:34;11.80;;;10.67;;
2049;SDS011;8478;49.208;8.806;2024-01-16T09:21:00;13.20;;;10.43;;
2049;SDS011;8478;49.208;8.806;2024-01-16T09:23:26;9.53;;;8.63;;
2049;SDS011;8478;49.208;8.806;2024-01-16T09:25:52;11.33;;;9.30;;
2049;SDS011;8478;49.208;8.806;2024-01-16T09:28:18;11.10;;;10.00;;
2049;SDS011;8478;49.208;8.806;2024-01-16T09:30:43;9.97;;;8.97;;
2049;SDS011;8478;49.208;8.806;2024-01-16T09:33:09;9.83;;;8.80;;
2049;SDS011;8478;49.208;8.806;2024-01-16T09:35:36;10.33;;;9.23;;
2049;SDS011;8478;49.208;8.806;2024-01-16T09:38:02;9.53;;;8.63;;
2049;SDS011;8478;49.208;8.806;2024-01-16T09:40:30;9.53;;;8.63;;
2049;SDS011;8478;49.208;8.806;2024-01-16T09:42:55;10.10;;;9.10;;
2049;SDS011;8478;49.208;8.806;2024-01-16T09:45:22;10.53;;;8.90;;
2049;SDS011;8478;49.208;8.806;2024-01-16T09:47:50;10.27;;;9.27;;
2049;SDS011;8478;49.208;8.806;2024-01-16T09:50:17;11.00;;;8.80;;
2049;SDS011;8478;49.208;8.806;2024-01-16T09:52:46;10.47;;;9.33;;
2049;SDS011;8478;49.208;8.806;2024-01-16T09:55:12;8.30;;;7.43;;
2049;SDS011;8478;49.208;8.806;2024-01-16T09:57:39;9.37;;;7.90;;
2049;SDS011;8478;49.208;8.806;2024-01-16T10:00:07;9.30;;;8.40;;
2049;SDS011;8478;49.208;8.806;2024-01-16T10:02:40;9.20;;;8.30;;
2049;SDS011;8478;49.208;8.806;2024-01-16T10:05:10;8.17;;;7.53;;
2049;SDS011;8478;49.208;8.806;2024-01-16T10:07:40;9.37;;;8.53;;
2049;SDS011;8478;49.208;8.806;2024-01-16T10:10:10;8.50;;;7.60;;
2049;SDS011;8478;49.208;8.806;2024-01-16T10:12:36;8.17;;;7.37;;
2049;SDS011;8478;49.208;8.806;2024-01-16T10:15:05;8.90;;;8.10;;
2049;SDS011;8478;49.208;8.806;2024-01-16T10:17:38;8.60;;;7.90;;
2049;SDS011;8478;49.208;8.806;2024-01-16T10:20:05;9.03;;;8.20;;
2049;SDS011;8478;49.208;8.806;2024-01-16T10:22:32;9.60;;;8.70;;
2049;SDS011;8478;49.208;8.806;2024-01-16T10:25:04;9.07;;;8.17;;
2049;SDS011;8478;49.208;8.806;2024-01-16T10:27:38;7.87;;;7.07;;
2049;SDS011;8478;49.208;8.806;2024-01-16T10:30:05;7.97;;;7.23;;
2049;SDS011;8478;49.208;8.806;2024-01-16T10:32:36;9.10;;;8.07;;
2049;SDS011;8478;49.208;8.806;2024-01-16T10:37:40;7.90;;;7.10;;
2049;SDS011;8478;49.208;8.806;2024-01-16T10:40:07;8.63;;;7.90;;
2049;SDS011;8478;49.208;8.806;2024-01-16T10:42:33;8.13;;;7.33;;
2049;SDS011;8478;49.208;8.806;2024-01-16T10:44:59;8.53;;;7.73;;
2049;SDS011;8478;49.208;8.806;2024-01-16T10:47:24;8.33;;;7.53;;
2049;SDS011;8478;49.208;8.806;2024-01-16T10:49:50;8.17;;;7.47;;
2049;SDS011;8478;49.208;8.806;2024-01-16T10:52:16;8.90;;;8.00;;
2049;SDS011;8478;49.208;8.806;2024-01-16T10:54:43;9.43;;;8.30;;
2049;SDS011;8478;49.208;8.806;2024-01-16T10:57:14;7.83;;;7.13;;
2049;SDS011;8478;49.208;8.806;2024-01-16T10:59:48;8.50;;;7.57;;
2049;SDS011;8478;49.208;8.806;2024-01-16T11:02:24;7.90;;;7.10;;
2049;SDS011;8478;49.208;8.806;2024-01-16T11:04:58;8.30;;;7.43;;
2049;SDS011;8478;49.208;8.806;2024-01-16T11:07:24;7.70;;;7.00;;
2049;SDS011;8478;49.208;8.806;2024-01-16T11:09:51;10.23;;;8.40;;
2049;SDS011;8478;49.208;8.806;2024-01-16T11:12:18;7.90;;;7.20;;
2049;SDS011;8478;49.208;8.806;2024-01-16T11:14:47;10.47;;;8.83;;
2049;SDS011;8478;49.208;8.806;2024-01-16T11:17:17;8.77;;;7.50;;
2049;SDS011;8478;49.208;8.806;2024-01-16T11:19:46;10.17;;;7.40;;
2049;SDS011;8478;49.208;8.806;2024-01-16T11:22:13;8.47;;;7.00;;
2049;SDS011;8478;49.208;8.806;2024-01-16T11:24:40;7.53;;;6.93;;
2049;SDS011;8478;49.208;8.806;2024-01-16T11:27:07;8.70;;;7.90;;
2049;SDS011;8478;49.208;8.806;2024-01-16T11:29:34;9.23;;;7.87;;
2049;SDS011;8478;49.208;8.806;2024-01-16T11:32:00;7.57;;;6.77;;
2049;SDS011;8478;49.208;8.806;2024-01-16T11:37:13;8.80;;;7.27;;
2049;SDS011;8478;49.208;8.806;2024-01-16T11:39:39;8.00;;;7.20;;
2049;SDS011;8478;49.208;8.806;2024-01-16T11:42:08;7.57;;;6.87;;
2049;SDS011;8478;49.208;8.806;2024-01-16T11:44:40;8.00;;;7.30;;
2049;SDS011;8478;49.208;8.806;2024-01-16T11:47:18;8.20;;;7.50;;
2049;SDS011;8478;49.208;8.806;2024-01-16T11:49:49;12.50;;;7.87;;
2049;SDS011;8478;49.208;8.806;2024-01-16T11:52:38;8.40;;;7.60;;
2049;SDS011;8478;49.208;8.806;2024-01-16T12:00:50;8.80;;;6.93;;
2049;SDS011;8478;49.208;8.806;2024-01-16T12:03:18;8.60;;;7.70;;
2049;SDS011;8478;49.208;8.806;2024-01-16T12:05:55;8.17;;;7.40;;
2049;SDS011;8478;49.208;8.806;2024-01-16T12:08:21;8.17;;;7.40;;
2049;SDS011;8478;49.208;8.806;2024-01-16T12:10:48;8.00;;;7.23;;
2049;SDS011;8478;49.208;8.806;2024-01-16T12:13:13;7.57;;;6.77;;
2049;SDS011;8478;49.208;8.806;2024-01-16T12:15:39;7.87;;;7.17;;
2049;SDS011;8478;49.208;8.806;2024-01-16T12:18:06;7.93;;;7.23;;
2049;SDS011;8478;49.208;8.806;2024-01-16T12:20:32;7.60;;;6.90;;
2049;SDS011;8478;49.208;8.806;2024-01-16T12:23:06;7.57;;;6.80;;
2049;SDS011;8478;49.208;8.806;2024-01-16T12:25:38;7.20;;;6.60;;
2049;SDS011;8478;49.208;8.806;2024-01-16T12:28:05;7.33;;;6.70;;
2049;SDS011;8478;49.208;8.806;2024-01-16T12:33:11;8.73;;;7.70;;
2049;SDS011;8478;49.208;8.806;2024-01-16T12:35:42;7.50;;;6.43;;
2049;SDS011;8478;49.208;8.806;2024-01-16T12:38:11;7.60;;;6.90;;
2049;SDS011;8478;49.208;8.806;2024-01-16T12:40:45;8.77;;;5.63;;
2049;SDS011;8478;49.208;8.806;2024-01-16T12:43:12;7.03;;;6.50;;
2049;SDS011;8478;49.208;8.806;2024-01-16T12:45:37;6.40;;;5.80;;
2049;SDS011;8478;49.208;8.806;2024-01-16T12:48:03;7.07;;;6.43;;
2049;SDS011;8478;49.208;8.806;2024-01-16T12:50:29;6.77;;;6.03;;
2049;SDS011;8478;49.208;8.806;2024-01-16T12:55:33;7.00;;;6.40;;
2049;SDS011;8478;49.208;8.806;2024-01-16T13:00:48;6.50;;;5.83;;
2049;SDS011;8478;49.208;8.806;2024-01-16T13:03:19;6.40;;;5.90;;
2049;SDS011;8478;49.208;8.806;2024-01-16T13:05:45;6.47;;;5.97;;
2049;SDS011;8478;49.208;8.806;2024-01-16T13:08:20;6.53;;;5.70;;
2049;SDS011;8478;49.208;8.806;2024-01-16T13:10:46;6.90;;;6.20;;
2049;SDS011;8478;49.208;8.806;2024-01-16T13:13:26;5.93;;;5.43;;
2049;SDS011;8478;49.208;8.806;2024-01-16T13:15:51;7.50;;;5.93;;
2049;SDS011;8478;49.208;8.806;2024-01-16T13:18:18;6.57;;;5.90;;
2049;SDS011;8478;49.208;8.806;2024-01-16T13:20:49;5.53;;;5.00;;
2049;SDS011;8478;49.208;8.806;2024-01-16T13:23:15;6.47;;;5.87;;
2049;SDS011;8478;49.208;8.806;2024-01-16T13:25:44;5.50;;;5.00;;
2049;SDS011;8478;49.208;8.806;2024-01-16T13:28:12;5.60;;;4.93;;
2049;SDS011;8478;49.208;8.806;2024-01-16T13:30:39;6.47;;;5.43;;
2049;SDS011;8478;49.208;8.806;2024-01-16T13:33:08;5.57;;;5.00;;
2049;SDS011;8478;49.208;8.806;2024-01-16T13:35:34;6.10;;;5.27;;
2049;SDS011;8478;49.208;8.806;2024-01-16T13:38:03;5.83;;;5.30;;
2049;SDS011;8478;49.208;8.806;2024-01-16T13:40:29;6.90;;;5.80;;
2049;SDS011;8478;49.208;8.806;2024-01-16T13:42:55;5.70;;;5.30;;
2049;SDS011;8478;49.208;8.806;2024-01-16T13:45:20;7.20;;;5.93;;
2049;SDS011;8478;49.208;8.806;2024-01-16T13:47:46;6.80;;;5.70;;
2049;SDS011;8478;49.208;8.806;2024-01-16T13:50:12;5.97;;;5.37;;
2049;SDS011;8478;49.208;8.806;2024-01-16T13:52:38;6.67;;;5.77;;
2049;SDS011;8478;49.208;8.806;2024-01-16T13:55:06;6.03;;;5.47;;
2049;SDS011;8478;49.208;8.806;2024-01-16T13:57:33;6.30;;;5.80;;
2049;SDS011;8478;49.208;8.806;2024-01-16T14:00:02;5.53;;;5.03;;
2049;SDS011;8478;49.208;8.806;2024-01-16T14:02:29;5.70;;;5.20;;
2049;SDS011;8478;49.208;8.806;2024-01-16T14:04:55;5.13;;;4.60;;
2049;SDS011;8478;49.208;8.806;2024-01-16T14:07:21;5.10;;;4.60;;
2049;SDS011;8478;49.208;8.806;2024-01-16T14:09:47;7.70;;;4.90;;
2049;SDS011;8478;49.208;8.806;2024-01-16T14:12:13;5.77;;;5.27;;
2049;SDS011;8478;49.208;8.806;2024-01-16T14:14:39;5.40;;;4.90;;
2049;SDS011;8478;49.208;8.806;2024-01-16T14:17:06;5.43;;;4.77;;
2049;SDS011;8478;49.208;8.806;2024-01-16T14:19:34;5.50;;;5.00;;
2049;SDS011;8478;49.208;8.806;2024-01-16T14:22:00;6.53;;;5.47;;
2049;SDS011;8478;49.208;8.806;2024-01-16T14:24:26;5.80;;;5.23;;
2049;SDS011;8478;49.208;8.806;2024-01-16T14:26:51;5.60;;;5.17;;
2049;SDS011;8478;49.208;8.806;2024-01-16T14:29:17;5.43;;;4.80;;
2049;SDS011;8478;49.208;8.806;2024-01-16T14:31:43;7.20;;;5.50;;
2049;SDS011;8478;49.208;8.806;2024-01-16T14:34:13;6.60;;;4.97;;
2049;SDS011;8478;49.208;8.806;2024-01-16T14:36:39;4.93;;;4.53;;
2049;SDS011;8478;49.208;8.806;2024-01-16T14:39:06;6.90;;;6.00;;
2049;SDS011;8478;49.208;8.806;2024-01-16T14:41:34;7.03;;;5.23;;
2049;SDS011;8478;49.208;8.806;2024-01-16T14:44:01;5.53;;;4.93;;
2049;SDS011;8478;49.208;8.806;2024-01-16T14:46:26;6.03;;;5.50;;
2049;SDS011;8478;49.208;8.806;2024-01-16T14:48:52;6.40;;;5.80;;
2049;SDS011;8478;49.208;8.806;2024-01-16T14:51:18;6.70;;;6.10;;
2049;SDS011;8478;49.208;8.806;2024-01-16T14:53:43;8.10;;;7.40;;
2049;SDS011;8478;49.208;8.806;2024-01-16T14:56:09;7.87;;;6.80;;
2049;SDS011;8478;49.208;8.806;2024-01-16T14:58:38;7.63;;;6.83;;
2049;SDS011;8478;49.208;8.806;2024-01-16T15:01:03;7.00;;;6.33;;
2049;SDS011;8478;49.208;8.806;2024-01-16T15:03:30;8.63;;;7.47;;
2049;SDS011;8478;49.208;8.806;2024-01-16T15:05:56;8.00;;;6.80;;
2049;SDS011;8478;49.208;8.806;2024-01-16T15:08:22;6.40;;;5.80;;
2049;SDS011;8478;49.208;8.806;2024-01-16T15:10:48;8.33;;;6.90;;
2049;SDS011;8478;49.208;8.806;2024-01-16T15:13:13;6.37;;;5.77;;
2049;SDS011;8478;49.208;8.806;2024-01-16T15:15:39;8.23;;;6.77;;
2049;SDS011;8478;49.208;8.806;2024-01-16T15:18:05;7.73;;;6.97;;
2049;SDS011;8478;49.208;8.806;2024-01-16T15:20:30;8.97;;;6.97;;
2049;SDS011;8478;49.208;8.806;2024-01-16T15:22:56;7.43;;;6.83;;
2049;SDS011;8478;49.208;8.806;2024-01-16T15:25:22;7.10;;;6.50;;
2049;SDS011;8478;49.208;8.806;2024-01-16T15:27:49;6.30;;;5.70;;